Deer Lodge (38S)
Deer Lodge, MT
Field Elevation: 4692
Lat: 49°23.27N  Long: 112°45.89W
CTAF/Unicom Freq: 120.0250
   
     For Weather-by-Phone, call 406-846-1177
Weather Advisories
10/23/2014 19:47 Z
Altimeter 29.93" Hg
Wind 160° @ 14 KT
Gusts 18 KT
Visibility 10 SM
Temperature 14° C (57° F)
Dewpoint 4° C (39° F)
Relative Humidity 50%
Density Altitude --
Condensation Altitude 10,000 feet
  Wind and Runways
Indicated Runway = 13
History
 
 
More Info
All DigiWx sites map
Weather Radar
NOAA Forecast
 
Airport IQ 5010
(S59) Libby
(6S5) Ravalli County
 
about DigiWx
 
FAA Disclaimer: The data displayed is for advisory purposes only and is not to be used for flight planning or operations. For official data, please call 406-846-1177 to hear the current automated AWOS voice message.
  METAR 38S 231947Z AUTO 16014G18KT 10SM 14/04 A2993